sensor_id;sensor_type;location;lat;lon;timestamp;P1;P2;P0
55459;PMS5003;41326;45.302;-122.946;2024-02-28T00:00:57;0;0;
55459;PMS5003;41326;45.302;-122.946;2024-02-28T00:03:27;0;0;
55459;PMS5003;41326;45.302;-122.946;2024-02-28T00:05:58;0;0;
55459;PMS5003;41326;45.302;-122.946;2024-02-28T00:08:28;0;0;
55459;PMS5003;41326;45.302;-122.946;2024-02-28T00:10:58;0;0;
55459;PMS5003;41326;45.302;-122.946;2024-02-28T00:13:28;0;0;
55459;PMS5003;41326;45.302;-122.946;2024-02-28T00:15:58;0;0;
55459;PMS5003;41326;45.302;-122.946;2024-02-28T00:18:28;0;0;
55459;PMS5003;41326;45.302;-122.946;2024-02-28T00:20:58;0;0;
55459;PMS5003;41326;45.302;-122.946;2024-02-28T00:23:28;0;0;
55459;PMS5003;41326;45.302;-122.946;2024-02-28T00:25:58;0;0;
55459;PMS5003;41326;45.302;-122.946;2024-02-28T00:28:28;0;0;
55459;PMS5003;41326;45.302;-122.946;2024-02-28T00:30:58;0;0;
55459;PMS5003;41326;45.302;-122.946;2024-02-28T00:33:28;0;0;
55459;PMS5003;41326;45.302;-122.946;2024-02-28T00:35:59;0;0;
55459;PMS5003;41326;45.302;-122.946;2024-02-28T00:38:29;0;0;
55459;PMS5003;41326;45.302;-122.946;2024-02-28T00:40:59;0;0;
55459;PMS5003;41326;45.302;-122.946;2024-02-28T00:43:29;0;0;
55459;PMS5003;41326;45.302;-122.946;2024-02-28T00:46:00;0;0;
55459;PMS5003;41326;45.302;-122.946;2024-02-28T00:48:29;0;0;
55459;PMS5003;41326;45.302;-122.946;2024-02-28T00:50:59;0;0;
55459;PMS5003;41326;45.302;-122.946;2024-02-28T00:53:29;0;0;
55459;PMS5003;41326;45.302;-122.946;2024-02-28T00:55:59;0;0;
55459;PMS5003;41326;45.302;-122.946;2024-02-28T00:58:29;0;0;
55459;PMS5003;41326;45.302;-122.946;2024-02-28T01:00:59;0;0;
55459;PMS5003;41326;45.302;-122.946;2024-02-28T01:03:30;0;0;
55459;PMS5003;41326;45.302;-122.946;2024-02-28T01:06:00;0;0;
55459;PMS5003;41326;45.302;-122.946;2024-02-28T01:08:30;0;0;
55459;PMS5003;41326;45.302;-122.946;2024-02-28T01:11:00;0;0;
55459;PMS5003;41326;45.302;-122.946;2024-02-28T01:13:30;0;0;
55459;PMS5003;41326;45.302;-122.946;2024-02-28T01:16:00;0;0;
55459;PMS5003;41326;45.302;-122.946;2024-02-28T01:18:30;0;0;
55459;PMS5003;41326;45.302;-122.946;2024-02-28T01:21:00;0;0;
55459;PMS5003;41326;45.302;-122.946;2024-02-28T01:23:30;0;0;
55459;PMS5003;41326;45.302;-122.946;2024-02-28T01:26:00;0;0;
55459;PMS5003;41326;45.302;-122.946;2024-02-28T01:28:30;0;0;
55459;PMS5003;41326;45.302;-122.946;2024-02-28T01:31:01;0;0;
55459;PMS5003;41326;45.302;-122.946;2024-02-28T01:33:30;0;0;
55459;PMS5003;41326;45.302;-122.946;2024-02-28T01:36:01;0;0;
55459;PMS5003;41326;45.302;-122.946;2024-02-28T01:38:31;0;0;
55459;PMS5003;41326;45.302;-122.946;2024-02-28T01:41:01;0;0;
55459;PMS5003;41326;45.302;-122.946;2024-02-28T01:43:31;0;0;
55459;PMS5003;41326;45.302;-122.946;2024-02-28T01:46:03;0;0;
55459;PMS5003;41326;45.302;-122.946;2024-02-28T01:48:31;0;0;
55459;PMS5003;41326;45.302;-122.946;2024-02-28T01:51:01;0;0;
55459;PMS5003;41326;45.302;-122.946;2024-02-28T01:53:31;0;0;
55459;PMS5003;41326;45.302;-122.946;2024-02-28T01:56:01;0;0;
55459;PMS5003;41326;45.302;-122.946;2024-02-28T01:58:31;0;0;
55459;PMS5003;41326;45.302;-122.946;2024-02-28T02:01:01;0;0;
55459;PMS5003;41326;45.302;-122.946;2024-02-28T02:03:31;0;0;
55459;PMS5003;41326;45.302;-122.946;2024-02-28T02:06:02;0;0;
55459;PMS5003;41326;45.302;-122.946;2024-02-28T02:08:31;0;0;
55459;PMS5003;41326;45.302;-122.946;2024-02-28T02:11:02;0;0;
55459;PMS5003;41326;45.302;-122.946;2024-02-28T02:13:32;0;0;
55459;PMS5003;41326;45.302;-122.946;2024-02-28T02:16:02;0;0;
55459;PMS5003;41326;45.302;-122.946;2024-02-28T02:18:34;0;0;
55459;PMS5003;41326;45.302;-122.946;2024-02-28T02:21:02;2;2;
55459;PMS5003;41326;45.302;-122.946;2024-02-28T02:23:32;5;5;
55459;PMS5003;41326;45.302;-122.946;2024-02-28T02:26:03;6;5;
55459;PMS5003;41326;45.302;-122.946;2024-02-28T02:28:33;4;4;
55459;PMS5003;41326;45.302;-122.946;2024-02-28T02:31:03;3;3;
55459;PMS5003;41326;45.302;-122.946;2024-02-28T02:33:33;8;6;
55459;PMS5003;41326;45.302;-122.946;2024-02-28T02:36:04;5;3;
55459;PMS5003;41326;45.302;-122.946;2024-02-28T02:38:34;5;5;
55459;PMS5003;41326;45.302;-122.946;2024-02-28T02:41:04;3;3;
55459;PMS5003;41326;45.302;-122.946;2024-02-28T02:43:34;5;3;
55459;PMS5003;41326;45.302;-122.946;2024-02-28T02:46:05;3;3;
55459;PMS5003;41326;45.302;-122.946;2024-02-28T02:48:34;3;3;
55459;PMS5003;41326;45.302;-122.946;2024-02-28T02:51:05;3;3;
55459;PMS5003;41326;45.302;-122.946;2024-02-28T02:53:35;1;1;
55459;PMS5003;41326;45.302;-122.946;2024-02-28T02:56:05;4;4;
55459;PMS5003;41326;45.302;-122.946;2024-02-28T02:58:35;7;6;
55459;PMS5003;41326;45.302;-122.946;2024-02-28T03:01:05;5;3;
55459;PMS5003;41326;45.302;-122.946;2024-02-28T03:03:35;3;3;
55459;PMS5003;41326;45.302;-122.946;2024-02-28T03:06:05;2;2;
55459;PMS5003;41326;45.302;-122.946;2024-02-28T03:08:35;3;2;
55459;PMS5003;41326;45.302;-122.946;2024-02-28T03:11:05;2;2;
55459;PMS5003;41326;45.302;-122.946;2024-02-28T03:13:35;4;3;
55459;PMS5003;41326;45.302;-122.946;2024-02-28T03:16:06;3;3;
55459;PMS5003;41326;45.302;-122.946;2024-02-28T03:18:35;2;2;
55459;PMS5003;41326;45.302;-122.946;2024-02-28T03:21:06;3;3;
55459;PMS5003;41326;45.302;-122.946;2024-02-28T03:23:36;2;2;
55459;PMS5003;41326;45.302;-122.946;2024-02-28T03:26:06;2;2;
55459;PMS5003;41326;45.302;-122.946;2024-02-28T03:28:36;1;1;
55459;PMS5003;41326;45.302;-122.946;2024-02-28T03:31:06;3;3;
55459;PMS5003;41326;45.302;-122.946;2024-02-28T03:33:36;1;1;
55459;PMS5003;41326;45.302;-122.946;2024-02-28T03:36:06;2;2;
55459;PMS5003;41326;45.302;-122.946;2024-02-28T03:38:36;5;3;
55459;PMS5003;41326;45.302;-122.946;2024-02-28T03:41:06;3;2;
55459;PMS5003;41326;45.302;-122.946;2024-02-28T03:43:36;3;3;
55459;PMS5003;41326;45.302;-122.946;2024-02-28T03:46:07;2;2;
55459;PMS5003;41326;45.302;-122.946;2024-02-28T03:48:36;2;2;
55459;PMS5003;41326;45.302;-122.946;2024-02-28T03:51:06;2;1;
55459;PMS5003;41326;45.302;-122.946;2024-02-28T03:53:37;4;1;
55459;PMS5003;41326;45.302;-122.946;2024-02-28T03:56:07;1;1;
55459;PMS5003;41326;45.302;-122.946;2024-02-28T03:58:37;2;1;
55459;PMS5003;41326;45.302;-122.946;2024-02-28T04:01:07;1;1;
55459;PMS5003;41326;45.302;-122.946;2024-02-28T04:03:37;3;3;
55459;PMS5003;41326;45.302;-122.946;2024-02-28T04:06:07;0;0;
55459;PMS5003;41326;45.302;-122.946;2024-02-28T04:08:37;1;1;
55459;PMS5003;41326;45.302;-122.946;2024-02-28T04:11:07;2;1;
55459;PMS5003;41326;45.302;-122.946;2024-02-28T04:13:37;3;2;
55459;PMS5003;41326;45.302;-122.946;2024-02-28T04:16:08;1;1;
55459;PMS5003;41326;45.302;-122.946;2024-02-28T04:18:37;1;1;
55459;PMS5003;41326;45.302;-122.946;2024-02-28T04:21:07;0;0;
55459;PMS5003;41326;45.302;-122.946;2024-02-28T04:23:37;1;1;
55459;PMS5003;41326;45.302;-122.946;2024-02-28T04:26:08;3;2;
55459;PMS5003;41326;45.302;-122.946;2024-02-28T04:28:38;1;1;
55459;PMS5003;41326;45.302;-122.946;2024-02-28T04:31:08;1;1;
55459;PMS5003;41326;45.302;-122.946;2024-02-28T04:33:38;1;1;
55459;PMS5003;41326;45.302;-122.946;2024-02-28T04:36:08;2;1;
55459;PMS5003;41326;45.302;-122.946;2024-02-28T04:38:38;1;1;
55459;PMS5003;41326;45.302;-122.946;2024-02-28T04:41:08;1;0;
55459;PMS5003;41326;45.302;-122.946;2024-02-28T04:43:38;3;0;
55459;PMS5003;41326;45.302;-122.946;2024-02-28T04:46:09;1;1;
55459;PMS5003;41326;45.302;-122.946;2024-02-28T04:48:39;0;0;
55459;PMS5003;41326;45.302;-122.946;2024-02-28T04:51:09;0;0;
55459;PMS5003;41326;45.302;-122.946;2024-02-28T04:53:39;1;1;
55459;PMS5003;41326;45.302;-122.946;2024-02-28T04:56:09;0;0;
55459;PMS5003;41326;45.302;-122.946;2024-02-28T04:58:39;1;0;
55459;PMS5003;41326;45.302;-122.946;2024-02-28T05:01:09;1;1;
55459;PMS5003;41326;45.302;-122.946;2024-02-28T05:03:40;2;0;
55459;PMS5003;41326;45.302;-122.946;2024-02-28T05:06:10;1;1;
55459;PMS5003;41326;45.302;-122.946;2024-02-28T05:08:40;0;0;
55459;PMS5003;41326;45.302;-122.946;2024-02-28T05:11:10;0;0;
55459;PMS5003;41326;45.302;-122.946;2024-02-28T05:13:40;0;0;
55459;PMS5003;41326;45.302;-122.946;2024-02-28T05:16:14;0;0;
55459;PMS5003;41326;45.302;-122.946;2024-02-28T05:18:40;2;0;
55459;PMS5003;41326;45.302;-122.946;2024-02-28T05:21:10;0;0;
55459;PMS5003;41326;45.302;-122.946;2024-02-28T05:23:40;0;0;
55459;PMS5003;41326;45.302;-122.946;2024-02-28T05:26:10;0;0;
55459;PMS5003;41326;45.302;-122.946;2024-02-28T05:28:41;0;0;
55459;PMS5003;41326;45.302;-122.946;2024-02-28T05:33:41;0;0;
55459;PMS5003;41326;45.302;-122.946;2024-02-28T05:36:11;1;1;
55459;PMS5003;41326;45.302;-122.946;2024-02-28T05:38:41;0;0;
55459;PMS5003;41326;45.302;-122.946;2024-02-28T05:41:11;0;0;
55459;PMS5003;41326;45.302;-122.946;2024-02-28T05:43:41;0;0;
55459;PMS5003;41326;45.302;-122.946;2024-02-28T05:46:12;0;0;
55459;PMS5003;41326;45.302;-122.946;2024-02-28T05:48:41;0;0;
55459;PMS5003;41326;45.302;-122.946;2024-02-28T05:51:11;0;0;
55459;PMS5003;41326;45.302;-122.946;2024-02-28T05:53:41;0;0;
55459;PMS5003;41326;45.302;-122.946;2024-02-28T05:56:11;0;0;
55459;PMS5003;41326;45.302;-122.946;2024-02-28T05:58:42;0;0;
55459;PMS5003;41326;45.302;-122.946;2024-02-28T06:01:12;0;0;
55459;PMS5003;41326;45.302;-122.946;2024-02-28T06:03:41;0;0;
55459;PMS5003;41326;45.302;-122.946;2024-02-28T06:06:12;0;0;
55459;PMS5003;41326;45.302;-122.946;2024-02-28T06:08:42;0;0;
55459;PMS5003;41326;45.302;-122.946;2024-02-28T06:11:12;0;0;
55459;PMS5003;41326;45.302;-122.946;2024-02-28T06:13:42;0;0;
55459;PMS5003;41326;45.302;-122.946;2024-02-28T06:16:14;0;0;
55459;PMS5003;41326;45.302;-122.946;2024-02-28T06:18:42;0;0;
55459;PMS5003;41326;45.302;-122.946;2024-02-28T06:21:13;0;0;
55459;PMS5003;41326;45.302;-122.946;2024-02-28T06:23:42;0;0;
55459;PMS5003;41326;45.302;-122.946;2024-02-28T06:26:12;0;0;
55459;PMS5003;41326;45.302;-122.946;2024-02-28T06:28:42;0;0;
55459;PMS5003;41326;45.302;-122.946;2024-02-28T06:31:13;0;0;
55459;PMS5003;41326;45.302;-122.946;2024-02-28T06:33:42;0;0;
55459;PMS5003;41326;45.302;-122.946;2024-02-28T06:36:12;0;0;
55459;PMS5003;41326;45.302;-122.946;2024-02-28T06:38:42;0;0;
55459;PMS5003;41326;45.302;-122.946;2024-02-28T06:41:13;0;0;
55459;PMS5003;41326;45.302;-122.946;2024-02-28T06:43:43;0;0;
55459;PMS5003;41326;45.302;-122.946;2024-02-28T06:46:13;0;0;
55459;PMS5003;41326;45.302;-122.946;2024-02-28T06:48:43;0;0;
55459;PMS5003;41326;45.302;-122.946;2024-02-28T06:51:13;0;0;
55459;PMS5003;41326;45.302;-122.946;2024-02-28T06:53:43;0;0;
55459;PMS5003;41326;45.302;-122.946;2024-02-28T06:56:13;1;1;
55459;PMS5003;41326;45.302;-122.946;2024-02-28T06:58:43;0;0;
55459;PMS5003;41326;45.302;-122.946;2024-02-28T07:01:13;0;0;
55459;PMS5003;41326;45.302;-122.946;2024-02-28T07:03:43;0;0;
55459;PMS5003;41326;45.302;-122.946;2024-02-28T07:06:13;0;0;
55459;PMS5003;41326;45.302;-122.946;2024-02-28T07:08:43;0;0;
55459;PMS5003;41326;45.302;-122.946;2024-02-28T07:11:13;0;0;
55459;PMS5003;41326;45.302;-122.946;2024-02-28T07:13:44;0;0;
55459;PMS5003;41326;45.302;-122.946;2024-02-28T07:16:14;0;0;
55459;PMS5003;41326;45.302;-122.946;2024-02-28T07:18:44;0;0;
55459;PMS5003;41326;45.302;-122.946;2024-02-28T07:21:14;0;0;
55459;PMS5003;41326;45.302;-122.946;2024-02-28T07:23:44;0;0;
55459;PMS5003;41326;45.302;-122.946;2024-02-28T07:26:15;0;0;
55459;PMS5003;41326;45.302;-122.946;2024-02-28T07:28:44;0;0;
55459;PMS5003;41326;45.302;-122.946;2024-02-28T07:31:14;0;0;
55459;PMS5003;41326;45.302;-122.946;2024-02-28T07:33:44;0;0;
55459;PMS5003;41326;45.302;-122.946;2024-02-28T07:36:14;0;0;
55459;PMS5003;41326;45.302;-122.946;2024-02-28T07:38:44;0;0;
55459;PMS5003;41326;45.302;-122.946;2024-02-28T07:41:14;1;1;
55459;PMS5003;41326;45.302;-122.946;2024-02-28T07:43:44;0;0;
55459;PMS5003;41326;45.302;-122.946;2024-02-28T07:46:15;0;0;
55459;PMS5003;41326;45.302;-122.946;2024-02-28T07:48:45;0;0;
55459;PMS5003;41326;45.302;-122.946;2024-02-28T07:51:15;0;0;
55459;PMS5003;41326;45.302;-122.946;2024-02-28T07:53:45;0;0;
55459;PMS5003;41326;45.302;-122.946;2024-02-28T07:56:16;0;0;
55459;PMS5003;41326;45.302;-122.946;2024-02-28T07:58:45;0;0;
55459;PMS5003;41326;45.302;-122.946;2024-02-28T08:01:15;0;0;
55459;PMS5003;41326;45.302;-122.946;2024-02-28T08:03:45;0;0;
55459;PMS5003;41326;45.302;-122.946;2024-02-28T08:06:15;0;0;
55459;PMS5003;41326;45.302;-122.946;2024-02-28T08:08:45;0;0;
55459;PMS5003;41326;45.302;-122.946;2024-02-28T08:11:15;0;0;
55459;PMS5003;41326;45.302;-122.946;2024-02-28T08:13:45;0;0;
55459;PMS5003;41326;45.302;-122.946;2024-02-28T08:16:15;0;0;
55459;PMS5003;41326;45.302;-122.946;2024-02-28T08:18:45;0;0;
55459;PMS5003;41326;45.302;-122.946;2024-02-28T08:21:15;0;0;
55459;PMS5003;41326;45.302;-122.946;2024-02-28T08:23:46;0;0;
55459;PMS5003;41326;45.302;-122.946;2024-02-28T08:26:16;0;0;
55459;PMS5003;41326;45.302;-122.946;2024-02-28T08:28:46;0;0;
55459;PMS5003;41326;45.302;-122.946;2024-02-28T08:31:16;0;0;
55459;PMS5003;41326;45.302;-122.946;2024-02-28T08:33:46;0;0;
55459;PMS5003;41326;45.302;-122.946;2024-02-28T08:36:16;0;0;
55459;PMS5003;41326;45.302;-122.946;2024-02-28T08:38:46;0;0;
55459;PMS5003;41326;45.302;-122.946;2024-02-28T08:41:16;0;0;
55459;PMS5003;41326;45.302;-122.946;2024-02-28T08:43:46;0;0;
55459;PMS5003;41326;45.302;-122.946;2024-02-28T08:46:17;0;0;
55459;PMS5003;41326;45.302;-122.946;2024-02-28T08:48:46;0;0;
55459;PMS5003;41326;45.302;-122.946;2024-02-28T08:51:16;0;0;
55459;PMS5003;41326;45.302;-122.946;2024-02-28T08:53:46;0;0;
55459;PMS5003;41326;45.302;-122.946;2024-02-28T08:56:16;0;0;
55459;PMS5003;41326;45.302;-122.946;2024-02-28T08:58:46;0;0;
55459;PMS5003;41326;45.302;-122.946;2024-02-28T09:01:23;0;0;
55459;PMS5003;41326;45.302;-122.946;2024-02-28T09:03:53;0;0;
55459;PMS5003;41326;45.302;-122.946;2024-02-28T09:06:24;0;0;
55459;PMS5003;41326;45.302;-122.946;2024-02-28T09:08:54;0;0;
55459;PMS5003;41326;45.302;-122.946;2024-02-28T09:11:24;0;0;
55459;PMS5003;41326;45.302;-122.946;2024-02-28T09:13:55;0;0;
55459;PMS5003;41326;45.302;-122.946;2024-02-28T09:16:25;0;0;
55459;PMS5003;41326;45.302;-122.946;2024-02-28T09:18:55;0;0;
55459;PMS5003;41326;45.302;-122.946;2024-02-28T09:21:25;0;0;
55459;PMS5003;41326;45.302;-122.946;2024-02-28T09:23:56;0;0;
55459;PMS5003;41326;45.302;-122.946;2024-02-28T09:26:26;0;0;
55459;PMS5003;41326;45.302;-122.946;2024-02-28T09:28:56;0;0;
55459;PMS5003;41326;45.302;-122.946;2024-02-28T09:31:26;0;0;
55459;PMS5003;41326;45.302;-122.946;2024-02-28T09:33:57;0;0;
55459;PMS5003;41326;45.302;-122.946;2024-02-28T09:36:27;0;0;
55459;PMS5003;41326;45.302;-122.946;2024-02-28T09:38:57;0;0;
55459;PMS5003;41326;45.302;-122.946;2024-02-28T09:41:27;0;0;
55459;PMS5003;41326;45.302;-122.946;2024-02-28T09:43:57;0;0;
55459;PMS5003;41326;45.302;-122.946;2024-02-28T09:46:28;0;0;
55459;PMS5003;41326;45.302;-122.946;2024-02-28T09:48:57;0;0;
55459;PMS5003;41326;45.302;-122.946;2024-02-28T09:51:27;1;0;
55459;PMS5003;41326;45.302;-122.946;2024-02-28T09:56:28;0;0;
55459;PMS5003;41326;45.302;-122.946;2024-02-28T09:58:58;0;0;
55459;PMS5003;41326;45.302;-122.946;2024-02-28T10:01:28;0;0;
55459;PMS5003;41326;45.302;-122.946;2024-02-28T10:03:59;0;0;
55459;PMS5003;41326;45.302;-122.946;2024-02-28T10:06:29;0;0;
55459;PMS5003;41326;45.302;-122.946;2024-02-28T10:08:59;1;0;
55459;PMS5003;41326;45.302;-122.946;2024-02-28T10:11:29;0;0;
55459;PMS5003;41326;45.302;-122.946;2024-02-28T10:13:59;0;0;
55459;PMS5003;41326;45.302;-122.946;2024-02-28T10:16:29;0;0;
55459;PMS5003;41326;45.302;-122.946;2024-02-28T10:18:59;0;0;
55459;PMS5003;41326;45.302;-122.946;2024-02-28T10:21:30;0;0;
55459;PMS5003;41326;45.302;-122.946;2024-02-28T10:24:00;0;0;
55459;PMS5003;41326;45.302;-122.946;2024-02-28T10:26:30;0;0;
55459;PMS5003;41326;45.302;-122.946;2024-02-28T10:29:00;0;0;
55459;PMS5003;41326;45.302;-122.946;2024-02-28T10:31:32;0;0;
55459;PMS5003;41326;45.302;-122.946;2024-02-28T10:34:01;0;0;
55459;PMS5003;41326;45.302;-122.946;2024-02-28T10:36:31;0;0;
55459;PMS5003;41326;45.302;-122.946;2024-02-28T10:39:01;0;0;
55459;PMS5003;41326;45.302;-122.946;2024-02-28T10:41:31;0;0;
55459;PMS5003;41326;45.302;-122.946;2024-02-28T10:44:02;0;0;
55459;PMS5003;41326;45.302;-122.946;2024-02-28T10:46:32;0;0;
55459;PMS5003;41326;45.302;-122.946;2024-02-28T10:49:02;0;0;
55459;PMS5003;41326;45.302;-122.946;2024-02-28T10:51:33;0;0;
55459;PMS5003;41326;45.302;-122.946;2024-02-28T10:54:07;0;0;
55459;PMS5003;41326;45.302;-122.946;2024-02-28T10:56:33;0;0;
55459;PMS5003;41326;45.302;-122.946;2024-02-28T10:59:03;0;0;
55459;PMS5003;41326;45.302;-122.946;2024-02-28T11:01:33;0;0;
55459;PMS5003;41326;45.302;-122.946;2024-02-28T11:04:03;0;0;
55459;PMS5003;41326;45.302;-122.946;2024-02-28T11:06:33;0;0;
55459;PMS5003;41326;45.302;-122.946;2024-02-28T11:09:03;0;0;
55459;PMS5003;41326;45.302;-122.946;2024-02-28T11:11:33;0;0;
55459;PMS5003;41326;45.302;-122.946;2024-02-28T11:14:04;0;0;
55459;PMS5003;41326;45.302;-122.946;2024-02-28T11:16:34;0;0;
55459;PMS5003;41326;45.302;-122.946;2024-02-28T11:19:04;0;0;
55459;PMS5003;41326;45.302;-122.946;2024-02-28T11:21:35;0;0;
55459;PMS5003;41326;45.302;-122.946;2024-02-28T11:24:05;0;0;
55459;PMS5003;41326;45.302;-122.946;2024-02-28T11:26:35;0;0;
55459;PMS5003;41326;45.302;-122.946;2024-02-28T11:29:07;0;0;
55459;PMS5003;41326;45.302;-122.946;2024-02-28T11:31:36;0;0;
55459;PMS5003;41326;45.302;-122.946;2024-02-28T11:34:06;0;0;
55459;PMS5003;41326;45.302;-122.946;2024-02-28T11:36:37;0;0;
55459;PMS5003;41326;45.302;-122.946;2024-02-28T11:39:07;0;0;
55459;PMS5003;41326;45.302;-122.946;2024-02-28T11:41:37;0;0;
55459;PMS5003;41326;45.302;-122.946;2024-02-28T11:44:08;0;0;
55459;PMS5003;41326;45.302;-122.946;2024-02-28T11:46:38;0;0;
55459;PMS5003;41326;45.302;-122.946;2024-02-28T11:49:08;0;0;
55459;PMS5003;41326;45.302;-122.946;2024-02-28T11:51:39;0;0;
55459;PMS5003;41326;45.302;-122.946;2024-02-28T11:54:08;0;0;
55459;PMS5003;41326;45.302;-122.946;2024-02-28T11:56:38;0;0;
55459;PMS5003;41326;45.302;-122.946;2024-02-28T11:59:08;0;0;
55459;PMS5003;41326;45.302;-122.946;2024-02-28T12:01:39;0;0;
55459;PMS5003;41326;45.302;-122.946;2024-02-28T12:04:09;0;0;
55459;PMS5003;41326;45.302;-122.946;2024-02-28T12:06:39;0;0;
55459;PMS5003;41326;45.302;-122.946;2024-02-28T12:09:10;0;0;
55459;PMS5003;41326;45.302;-122.946;2024-02-28T12:11:39;0;0;
55459;PMS5003;41326;45.302;-122.946;2024-02-28T12:14:09;0;0;
55459;PMS5003;41326;45.302;-122.946;2024-02-28T12:16:39;0;0;
55459;PMS5003;41326;45.302;-122.946;2024-02-28T12:19:10;0;0;
55459;PMS5003;41326;45.302;-122.946;2024-02-28T12:21:40;0;0;
55459;PMS5003;41326;45.302;-122.946;2024-02-28T12:24:10;0;0;
55459;PMS5003;41326;45.302;-122.946;2024-02-28T12:26:40;0;0;
55459;PMS5003;41326;45.302;-122.946;2024-02-28T12:29:10;0;0;
55459;PMS5003;41326;45.302;-122.946;2024-02-28T12:31:40;0;0;
55459;PMS5003;41326;45.302;-122.946;2024-02-28T12:34:10;0;0;
55459;PMS5003;41326;45.302;-122.946;2024-02-28T12:36:40;0;0;
55459;PMS5003;41326;45.302;-122.946;2024-02-28T12:39:10;0;0;
55459;PMS5003;41326;45.302;-122.946;2024-02-28T12:41:40;0;0;
55459;PMS5003;41326;45.302;-122.946;2024-02-28T12:44:11;0;0;
55459;PMS5003;41326;45.302;-122.946;2024-02-28T12:46:42;0;0;
55459;PMS5003;41326;45.302;-122.946;2024-02-28T12:49:11;0;0;
55459;PMS5003;41326;45.302;-122.946;2024-02-28T12:51:42;0;0;
55459;PMS5003;41326;45.302;-122.946;2024-02-28T12:54:12;0;0;
55459;PMS5003;41326;45.302;-122.946;2024-02-28T12:56:41;0;0;
55459;PMS5003;41326;45.302;-122.946;2024-02-28T12:59:12;0;0;
55459;PMS5003;41326;45.302;-122.946;2024-02-28T13:01:42;0;0;
55459;PMS5003;41326;45.302;-122.946;2024-02-28T13:04:12;0;0;
55459;PMS5003;41326;45.302;-122.946;2024-02-28T13:06:42;0;0;
55459;PMS5003;41326;45.302;-122.946;2024-02-28T13:09:13;0;0;
55459;PMS5003;41326;45.302;-122.946;2024-02-28T13:11:42;0;0;
55459;PMS5003;41326;45.302;-122.946;2024-02-28T13:14:13;0;0;
55459;PMS5003;41326;45.302;-122.946;2024-02-28T13:16:43;0;0;
55459;PMS5003;41326;45.302;-122.946;2024-02-28T13:19:13;0;0;
55459;PMS5003;41326;45.302;-122.946;2024-02-28T13:21:43;0;0;
55459;PMS5003;41326;45.302;-122.946;2024-02-28T13:24:13;0;0;
55459;PMS5003;41326;45.302;-122.946;2024-02-28T13:26:43;0;0;
55459;PMS5003;41326;45.302;-122.946;2024-02-28T13:29:13;0;0;
55459;PMS5003;41326;45.302;-122.946;2024-02-28T13:31:43;0;0;
55459;PMS5003;41326;45.302;-122.946;2024-02-28T13:34:13;0;0;
55459;PMS5003;41326;45.302;-122.946;2024-02-28T13:36:43;0;0;
55459;PMS5003;41326;45.302;-122.946;2024-02-28T13:39:13;0;0;
55459;PMS5003;41326;45.302;-122.946;2024-02-28T13:41:43;0;0;
55459;PMS5003;41326;45.302;-122.946;2024-02-28T13:44:13;0;0;
55459;PMS5003;41326;45.302;-122.946;2024-02-28T13:46:44;0;0;
55459;PMS5003;41326;45.302;-122.946;2024-02-28T13:49:14;0;0;
55459;PMS5003;41326;45.302;-122.946;2024-02-28T13:51:44;0;0;
55459;PMS5003;41326;45.302;-122.946;2024-02-28T13:54:14;0;0;
55459;PMS5003;41326;45.302;-122.946;2024-02-28T13:56:44;0;0;
55459;PMS5003;41326;45.302;-122.946;2024-02-28T13:59:14;0;0;
55459;PMS5003;41326;45.302;-122.946;2024-02-28T14:01:44;0;0;
55459;PMS5003;41326;45.302;-122.946;2024-02-28T14:04:14;0;0;
55459;PMS5003;41326;45.302;-122.946;2024-02-28T14:06:44;0;0;
55459;PMS5003;41326;45.302;-122.946;2024-02-28T14:09:14;0;0;
55459;PMS5003;41326;45.302;-122.946;2024-02-28T14:11:44;0;0;
55459;PMS5003;41326;45.302;-122.946;2024-02-28T14:14:14;0;0;
55459;PMS5003;41326;45.302;-122.946;2024-02-28T14:16:44;0;0;
55459;PMS5003;41326;45.302;-122.946;2024-02-28T14:19:14;0;0;
55459;PMS5003;41326;45.302;-122.946;2024-02-28T14:21:44;0;0;
55459;PMS5003;41326;45.302;-122.946;2024-02-28T14:24:15;0;0;
55459;PMS5003;41326;45.302;-122.946;2024-02-28T14:26:45;0;0;
55459;PMS5003;41326;45.302;-122.946;2024-02-28T14:29:15;0;0;
55459;PMS5003;41326;45.302;-122.946;2024-02-28T14:31:45;0;0;
55459;PMS5003;41326;45.302;-122.946;2024-02-28T14:34:15;0;0;
55459;PMS5003;41326;45.302;-122.946;2024-02-28T14:36:45;0;0;
55459;PMS5003;41326;45.302;-122.946;2024-02-28T14:39:15;0;0;
55459;PMS5003;41326;45.302;-122.946;2024-02-28T14:41:45;0;0;
55459;PMS5003;41326;45.302;-122.946;2024-02-28T14:44:15;0;0;
55459;PMS5003;41326;45.302;-122.946;2024-02-28T14:46:46;0;0;
55459;PMS5003;41326;45.302;-122.946;2024-02-28T14:49:15;0;0;
55459;PMS5003;41326;45.302;-122.946;2024-02-28T14:51:45;0;0;
55459;PMS5003;41326;45.302;-122.946;2024-02-28T14:54:15;0;0;
55459;PMS5003;41326;45.302;-122.946;2024-02-28T14:56:45;0;0;
55459;PMS5003;41326;45.302;-122.946;2024-02-28T14:59:15;0;0;
55459;PMS5003;41326;45.302;-122.946;2024-02-28T15:01:45;0;0;
55459;PMS5003;41326;45.302;-122.946;2024-02-28T15:04:16;0;0;
55459;PMS5003;41326;45.302;-122.946;2024-02-28T15:06:46;1;1;
55459;PMS5003;41326;45.302;-122.946;2024-02-28T15:09:16;0;0;
55459;PMS5003;41326;45.302;-122.946;2024-02-28T15:11:46;0;0;
55459;PMS5003;41326;45.302;-122.946;2024-02-28T15:14:16;0;0;
55459;PMS5003;41326;45.302;-122.946;2024-02-28T15:16:46;0;0;
55459;PMS5003;41326;45.302;-122.946;2024-02-28T15:19:16;0;0;
55459;PMS5003;41326;45.302;-122.946;2024-02-28T15:21:46;0;0;
55459;PMS5003;41326;45.302;-122.946;2024-02-28T15:24:16;0;0;
55459;PMS5003;41326;45.302;-122.946;2024-02-28T15:26:46;0;0;
55459;PMS5003;41326;45.302;-122.946;2024-02-28T15:29:16;0;0;
55459;PMS5003;41326;45.302;-122.946;2024-02-28T15:31:46;0;0;
55459;PMS5003;41326;45.302;-122.946;2024-02-28T15:34:16;0;0;
55459;PMS5003;41326;45.302;-122.946;2024-02-28T15:36:46;0;0;
55459;PMS5003;41326;45.302;-122.946;2024-02-28T15:39:16;0;0;
55459;PMS5003;41326;45.302;-122.946;2024-02-28T15:41:46;0;0;
55459;PMS5003;41326;45.302;-122.946;2024-02-28T15:44:16;0;0;
55459;PMS5003;41326;45.302;-122.946;2024-02-28T15:46:47;0;0;
55459;PMS5003;41326;45.302;-122.946;2024-02-28T15:49:17;0;0;
55459;PMS5003;41326;45.302;-122.946;2024-02-28T15:51:47;0;0;
55459;PMS5003;41326;45.302;-122.946;2024-02-28T15:54:17;0;0;
55459;PMS5003;41326;45.302;-122.946;2024-02-28T15:56:47;0;0;
55459;PMS5003;41326;45.302;-122.946;2024-02-28T15:59:17;0;0;
55459;PMS5003;41326;45.302;-122.946;2024-02-28T16:01:47;0;0;
55459;PMS5003;41326;45.302;-122.946;2024-02-28T16:04:17;0;0;
55459;PMS5003;41326;45.302;-122.946;2024-02-28T16:06:47;0;0;
55459;PMS5003;41326;45.302;-122.946;2024-02-28T16:09:17;0;0;
55459;PMS5003;41326;45.302;-122.946;2024-02-28T16:11:47;0;0;
55459;PMS5003;41326;45.302;-122.946;2024-02-28T16:14:17;0;0;
55459;PMS5003;41326;45.302;-122.946;2024-02-28T16:16:47;0;0;
55459;PMS5003;41326;45.302;-122.946;2024-02-28T16:19:17;0;0;
55459;PMS5003;41326;45.302;-122.946;2024-02-28T16:21:47;0;0;
55459;PMS5003;41326;45.302;-122.946;2024-02-28T16:24:18;0;0;